sensor_id;sensor_type;location;lat;lon;timestamp;P1;durP1;ratioP1;P2;durP2;ratioP2
44452;SDS011;30155;52.164;21.236;2022-10-18T00:00:03;26.17;;;18.92;;
44452;SDS011;30155;52.164;21.236;2022-10-18T00:04:58;19.77;;;17.50;;
44452;SDS011;30155;52.164;21.236;2022-10-18T00:09:49;18.62;;;16.60;;
44452;SDS011;30155;52.164;21.236;2022-10-18T00:14:41;20.27;;;17.00;;
44452;SDS011;30155;52.164;21.236;2022-10-18T00:19:32;22.02;;;16.82;;
44452;SDS011;30155;52.164;21.236;2022-10-18T00:24:24;19.42;;;16.10;;
44452;SDS011;30155;52.164;21.236;2022-10-18T00:29:17;22.45;;;19.55;;
44452;SDS011;30155;52.164;21.236;2022-10-18T00:34:11;25.23;;;17.73;;
44452;SDS011;30155;52.164;21.236;2022-10-18T00:39:06;21.07;;;16.82;;
44452;SDS011;30155;52.164;21.236;2022-10-18T00:44:03;21.07;;;16.37;;
44452;SDS011;30155;52.164;21.236;2022-10-18T00:49:11;23.12;;;17.80;;
44452;SDS011;30155;52.164;21.236;2022-10-18T00:54:07;22.77;;;17.60;;
44452;SDS011;30155;52.164;21.236;2022-10-18T00:58:58;23.15;;;18.27;;
44452;SDS011;30155;52.164;21.236;2022-10-18T01:03:58;21.73;;;17.02;;
44452;SDS011;30155;52.164;21.236;2022-10-18T01:14:03;19.57;;;17.10;;
44452;SDS011;30155;52.164;21.236;2022-10-18T01:35:18;23.92;;;17.70;;
44452;SDS011;30155;52.164;21.236;2022-10-18T01:40:11;26.62;;;18.45;;
44452;SDS011;30155;52.164;21.236;2022-10-18T01:45:07;25.73;;;19.30;;
44452;SDS011;30155;52.164;21.236;2022-10-18T01:50:04;23.07;;;18.42;;
44452;SDS011;30155;52.164;21.236;2022-10-18T01:55:00;19.30;;;16.80;;
44452;SDS011;30155;52.164;21.236;2022-10-18T02:10:30;26.77;;;16.95;;
44452;SDS011;30155;52.164;21.236;2022-10-18T02:15:38;19.10;;;15.50;;
44452;SDS011;30155;52.164;21.236;2022-10-18T02:20:36;20.25;;;16.25;;
44452;SDS011;30155;52.164;21.236;2022-10-18T02:25:29;19.17;;;15.75;;
44452;SDS011;30155;52.164;21.236;2022-10-18T02:30:27;23.42;;;15.08;;
44452;SDS011;30155;52.164;21.236;2022-10-18T02:35:30;18.27;;;15.25;;
44452;SDS011;30155;52.164;21.236;2022-10-18T02:40:26;17.77;;;14.65;;
44452;SDS011;30155;52.164;21.236;2022-10-18T02:45:20;20.92;;;15.53;;
44452;SDS011;30155;52.164;21.236;2022-10-18T02:50:14;18.12;;;15.40;;
44452;SDS011;30155;52.164;21.236;2022-10-18T02:55:09;18.42;;;15.20;;
44452;SDS011;30155;52.164;21.236;2022-10-18T03:00:09;18.10;;;15.63;;
44452;SDS011;30155;52.164;21.236;2022-10-18T03:05:02;16.70;;;14.90;;
44452;SDS011;30155;52.164;21.236;2022-10-18T03:10:00;17.70;;;14.58;;
44452;SDS011;30155;52.164;21.236;2022-10-18T03:15:01;23.35;;;14.63;;
44452;SDS011;30155;52.164;21.236;2022-10-18T03:19:54;20.75;;;14.93;;
44452;SDS011;30155;52.164;21.236;2022-10-18T03:24:47;20.08;;;14.80;;
44452;SDS011;30155;52.164;21.236;2022-10-18T03:29:38;15.95;;;12.98;;
44452;SDS011;30155;52.164;21.236;2022-10-18T03:34:30;15.72;;;12.75;;
44452;SDS011;30155;52.164;21.236;2022-10-18T03:39:32;19.85;;;15.32;;
44452;SDS011;30155;52.164;21.236;2022-10-18T03:44:26;18.55;;;16.15;;
44452;SDS011;30155;52.164;21.236;2022-10-18T03:49:19;16.60;;;13.98;;
44452;SDS011;30155;52.164;21.236;2022-10-18T03:54:15;17.75;;;13.95;;
44452;SDS011;30155;52.164;21.236;2022-10-18T03:59:07;15.70;;;13.60;;
44452;SDS011;30155;52.164;21.236;2022-10-18T04:04:08;16.12;;;13.70;;
44452;SDS011;30155;52.164;21.236;2022-10-18T04:09:09;20.20;;;15.00;;
44452;SDS011;30155;52.164;21.236;2022-10-18T04:14:04;19.40;;;14.78;;
44452;SDS011;30155;52.164;21.236;2022-10-18T04:18:58;17.07;;;14.25;;
44452;SDS011;30155;52.164;21.236;2022-10-18T04:24:05;18.73;;;15.60;;
44452;SDS011;30155;52.164;21.236;2022-10-18T04:29:08;16.90;;;14.25;;
44452;SDS011;30155;52.164;21.236;2022-10-18T04:34:04;21.42;;;14.90;;
44452;SDS011;30155;52.164;21.236;2022-10-18T04:39:20;17.90;;;14.38;;
44452;SDS011;30155;52.164;21.236;2022-10-18T04:44:30;18.37;;;13.08;;
44452;SDS011;30155;52.164;21.236;2022-10-18T04:49:36;18.67;;;13.30;;
44452;SDS011;30155;52.164;21.236;2022-10-18T05:00:38;13.78;;;10.88;;
44452;SDS011;30155;52.164;21.236;2022-10-18T05:05:40;19.62;;;12.80;;
44452;SDS011;30155;52.164;21.236;2022-10-18T05:10:50;14.28;;;11.05;;
44452;SDS011;30155;52.164;21.236;2022-10-18T05:21:10;18.67;;;13.33;;
44452;SDS011;30155;52.164;21.236;2022-10-18T05:26:05;23.73;;;15.43;;
44452;SDS011;30155;52.164;21.236;2022-10-18T05:31:15;23.47;;;13.30;;
44452;SDS011;30155;52.164;21.236;2022-10-18T05:36:37;19.25;;;12.40;;
44452;SDS011;30155;52.164;21.236;2022-10-18T05:41:42;15.83;;;13.08;;
44452;SDS011;30155;52.164;21.236;2022-10-18T05:46:34;19.07;;;13.68;;
44452;SDS011;30155;52.164;21.236;2022-10-18T05:51:34;18.60;;;13.13;;
44452;SDS011;30155;52.164;21.236;2022-10-18T06:01:45;20.27;;;12.00;;
44452;SDS011;30155;52.164;21.236;2022-10-18T06:06:52;19.62;;;13.30;;
44452;SDS011;30155;52.164;21.236;2022-10-18T06:11:51;24.90;;;13.93;;
44452;SDS011;30155;52.164;21.236;2022-10-18T06:16:59;16.60;;;12.50;;
44452;SDS011;30155;52.164;21.236;2022-10-18T06:21:57;25.30;;;13.25;;
44452;SDS011;30155;52.164;21.236;2022-10-18T06:27:01;16.12;;;12.65;;
44452;SDS011;30155;52.164;21.236;2022-10-18T06:36:54;16.90;;;12.43;;
44452;SDS011;30155;52.164;21.236;2022-10-18T06:47:02;30.12;;;15.70;;
44452;SDS011;30155;52.164;21.236;2022-10-18T06:51:58;19.90;;;14.43;;
44452;SDS011;30155;52.164;21.236;2022-10-18T06:57:00;20.75;;;12.35;;
44452;SDS011;30155;52.164;21.236;2022-10-18T07:01:50;14.70;;;12.18;;
44452;SDS011;30155;52.164;21.236;2022-10-18T07:06:48;15.15;;;12.55;;
44452;SDS011;30155;52.164;21.236;2022-10-18T07:11:42;18.12;;;11.60;;
44452;SDS011;30155;52.164;21.236;2022-10-18T07:16:33;14.63;;;12.20;;
44452;SDS011;30155;52.164;21.236;2022-10-18T07:21:28;13.05;;;10.13;;
44452;SDS011;30155;52.164;21.236;2022-10-18T07:36:12;14.30;;;10.32;;
44452;SDS011;30155;52.164;21.236;2022-10-18T07:41:09;10.85;;;9.35;;
44452;SDS011;30155;52.164;21.236;2022-10-18T07:45:58;15.63;;;9.75;;
44452;SDS011;30155;52.164;21.236;2022-10-18T07:50:52;10.88;;;9.58;;
44452;SDS011;30155;52.164;21.236;2022-10-18T07:55:44;13.58;;;10.78;;
44452;SDS011;30155;52.164;21.236;2022-10-18T08:00:35;11.75;;;9.50;;
44452;SDS011;30155;52.164;21.236;2022-10-18T08:05:27;9.28;;;8.38;;
44452;SDS011;30155;52.164;21.236;2022-10-18T08:10:20;12.63;;;9.03;;
44452;SDS011;30155;52.164;21.236;2022-10-18T08:15:13;12.10;;;8.35;;
44452;SDS011;30155;52.164;21.236;2022-10-18T08:20:04;12.20;;;8.30;;
44452;SDS011;30155;52.164;21.236;2022-10-18T08:25:00;10.45;;;9.33;;
44452;SDS011;30155;52.164;21.236;2022-10-18T08:29:59;11.53;;;8.93;;
44452;SDS011;30155;52.164;21.236;2022-10-18T08:34:51;10.45;;;9.05;;
44452;SDS011;30155;52.164;21.236;2022-10-18T08:39:43;12.10;;;9.03;;
44452;SDS011;30155;52.164;21.236;2022-10-18T08:44:38;13.55;;;9.20;;
44452;SDS011;30155;52.164;21.236;2022-10-18T08:49:42;12.88;;;9.25;;
44452;SDS011;30155;52.164;21.236;2022-10-18T08:54:52;14.63;;;9.68;;
44452;SDS011;30155;52.164;21.236;2022-10-18T08:59:47;13.93;;;9.45;;
44452;SDS011;30155;52.164;21.236;2022-10-18T09:04:42;12.13;;;9.73;;
44452;SDS011;30155;52.164;21.236;2022-10-18T09:25:25;12.70;;;10.70;;
44452;SDS011;30155;52.164;21.236;2022-10-18T09:30:36;13.20;;;11.25;;
44452;SDS011;30155;52.164;21.236;2022-10-18T09:45:54;12.37;;;11.05;;
44452;SDS011;30155;52.164;21.236;2022-10-18T09:50:59;18.40;;;13.18;;
44452;SDS011;30155;52.164;21.236;2022-10-18T09:56:01;14.83;;;13.43;;
44452;SDS011;30155;52.164;21.236;2022-10-18T10:01:07;12.70;;;11.40;;
44452;SDS011;30155;52.164;21.236;2022-10-18T10:11:30;12.40;;;11.15;;
44452;SDS011;30155;52.164;21.236;2022-10-18T10:16:27;12.82;;;11.60;;
44452;SDS011;30155;52.164;21.236;2022-10-18T10:21:19;12.65;;;11.43;;
44452;SDS011;30155;52.164;21.236;2022-10-18T10:26:31;13.05;;;10.90;;
44452;SDS011;30155;52.164;21.236;2022-10-18T10:31:37;15.50;;;13.48;;
44452;SDS011;30155;52.164;21.236;2022-10-18T10:36:31;13.90;;;11.73;;
44452;SDS011;30155;52.164;21.236;2022-10-18T10:41:50;15.05;;;12.05;;
44452;SDS011;30155;52.164;21.236;2022-10-18T10:51:53;13.08;;;11.60;;
44452;SDS011;30155;52.164;21.236;2022-10-18T10:57:00;14.00;;;11.48;;
44452;SDS011;30155;52.164;21.236;2022-10-18T11:12:43;12.07;;;10.98;;
44452;SDS011;30155;52.164;21.236;2022-10-18T11:17:53;16.17;;;11.22;;
44452;SDS011;30155;52.164;21.236;2022-10-18T11:22:56;13.30;;;11.93;;
44452;SDS011;30155;52.164;21.236;2022-10-18T11:27:55;14.45;;;12.23;;
44452;SDS011;30155;52.164;21.236;2022-10-18T11:39:07;15.53;;;13.93;;
44452;SDS011;30155;52.164;21.236;2022-10-18T11:44:30;13.50;;;12.23;;
44452;SDS011;30155;52.164;21.236;2022-10-18T12:05:50;16.15;;;14.18;;
44452;SDS011;30155;52.164;21.236;2022-10-18T12:38:14;17.00;;;13.22;;
44452;SDS011;30155;52.164;21.236;2022-10-18T12:49:02;15.15;;;13.43;;
44452;SDS011;30155;52.164;21.236;2022-10-18T12:54:29;13.65;;;11.95;;
44452;SDS011;30155;52.164;21.236;2022-10-18T13:26:10;15.38;;;13.75;;
44452;SDS011;30155;52.164;21.236;2022-10-18T14:20:24;16.80;;;12.70;;
44452;SDS011;30155;52.164;21.236;2022-10-18T14:25:46;15.58;;;13.98;;
44452;SDS011;30155;52.164;21.236;2022-10-18T15:08:44;23.57;;;19.15;;
44452;SDS011;30155;52.164;21.236;2022-10-18T15:19:19;45.35;;;29.42;;
44452;SDS011;30155;52.164;21.236;2022-10-18T16:16:54;8.75;;;5.20;;
44452;SDS011;30155;52.164;21.236;2022-10-18T16:22:26;6.05;;;5.45;;
44452;SDS011;30155;52.164;21.236;2022-10-18T16:27:56;6.15;;;5.10;;
44452;SDS011;30155;52.164;21.236;2022-10-18T16:33:09;4.95;;;4.37;;
44452;SDS011;30155;52.164;21.236;2022-10-18T16:38:34;6.97;;;5.95;;
44452;SDS011;30155;52.164;21.236;2022-10-18T16:49:21;14.83;;;10.68;;
44452;SDS011;30155;52.164;21.236;2022-10-18T16:54:12;10.25;;;8.90;;
44452;SDS011;30155;52.164;21.236;2022-10-18T16:59:04;8.05;;;7.25;;
44452;SDS011;30155;52.164;21.236;2022-10-18T17:04:14;10.95;;;8.38;;
44452;SDS011;30155;52.164;21.236;2022-10-18T17:09:13;7.85;;;7.00;;
44452;SDS011;30155;52.164;21.236;2022-10-18T17:14:14;9.53;;;8.15;;
44452;SDS011;30155;52.164;21.236;2022-10-18T17:19:44;12.20;;;10.90;;
44452;SDS011;30155;52.164;21.236;2022-10-18T17:24:53;16.37;;;11.53;;
44452;SDS011;30155;52.164;21.236;2022-10-18T17:29:51;15.63;;;12.90;;
44452;SDS011;30155;52.164;21.236;2022-10-18T17:34:55;15.40;;;13.90;;
44452;SDS011;30155;52.164;21.236;2022-10-18T17:39:52;11.83;;;10.60;;
44452;SDS011;30155;52.164;21.236;2022-10-18T17:44:58;10.53;;;9.45;;
44452;SDS011;30155;52.164;21.236;2022-10-18T17:50:08;9.23;;;8.33;;
44452;SDS011;30155;52.164;21.236;2022-10-18T17:55:11;11.80;;;10.55;;
44452;SDS011;30155;52.164;21.236;2022-10-18T18:00:05;10.88;;;8.75;;
44452;SDS011;30155;52.164;21.236;2022-10-18T18:05:08;9.28;;;8.28;;
44452;SDS011;30155;52.164;21.236;2022-10-18T18:10:01;8.98;;;7.92;;
44452;SDS011;30155;52.164;21.236;2022-10-18T18:15:00;8.03;;;7.22;;
44452;SDS011;30155;52.164;21.236;2022-10-18T18:20:31;9.63;;;7.70;;
44452;SDS011;30155;52.164;21.236;2022-10-18T18:25:28;6.92;;;6.15;;
44452;SDS011;30155;52.164;21.236;2022-10-18T18:30:19;6.92;;;5.97;;
44452;SDS011;30155;52.164;21.236;2022-10-18T18:35:16;6.90;;;5.90;;
44452;SDS011;30155;52.164;21.236;2022-10-18T18:40:13;7.55;;;6.87;;
44452;SDS011;30155;52.164;21.236;2022-10-18T18:45:05;8.40;;;7.00;;
44452;SDS011;30155;52.164;21.236;2022-10-18T18:50:06;7.12;;;6.42;;
44452;SDS011;30155;52.164;21.236;2022-10-18T18:55:00;8.68;;;6.22;;
44452;SDS011;30155;52.164;21.236;2022-10-18T19:21:57;10.38;;;8.00;;
44452;SDS011;30155;52.164;21.236;2022-10-18T19:32:02;6.55;;;5.50;;
44452;SDS011;30155;52.164;21.236;2022-10-18T19:37:05;11.12;;;6.85;;
44452;SDS011;30155;52.164;21.236;2022-10-18T19:42:09;9.73;;;6.97;;
44452;SDS011;30155;52.164;21.236;2022-10-18T19:47:15;7.65;;;6.25;;
44452;SDS011;30155;52.164;21.236;2022-10-18T19:52:28;10.35;;;6.92;;
44452;SDS011;30155;52.164;21.236;2022-10-18T20:03:30;9.48;;;6.83;;
44452;SDS011;30155;52.164;21.236;2022-10-18T20:20:15;9.00;;;6.12;;
44452;SDS011;30155;52.164;21.236;2022-10-18T20:36:30;7.47;;;6.72;;
44452;SDS011;30155;52.164;21.236;2022-10-18T20:41:31;6.95;;;6.08;;
44452;SDS011;30155;52.164;21.236;2022-10-18T20:46:31;6.72;;;6.00;;
44452;SDS011;30155;52.164;21.236;2022-10-18T20:51:25;8.05;;;6.10;;
44452;SDS011;30155;52.164;21.236;2022-10-18T20:56:17;5.78;;;5.25;;
44452;SDS011;30155;52.164;21.236;2022-10-18T21:06:11;6.70;;;5.83;;
44452;SDS011;30155;52.164;21.236;2022-10-18T21:11:12;6.92;;;6.05;;
44452;SDS011;30155;52.164;21.236;2022-10-18T21:16:05;7.95;;;6.42;;
44452;SDS011;30155;52.164;21.236;2022-10-18T21:21:17;6.70;;;5.90;;
44452;SDS011;30155;52.164;21.236;2022-10-18T21:26:05;7.95;;;7.25;;
44452;SDS011;30155;52.164;21.236;2022-10-18T21:31:08;7.12;;;5.97;;
44452;SDS011;30155;52.164;21.236;2022-10-18T21:41:46;8.83;;;7.85;;
44452;SDS011;30155;52.164;21.236;2022-10-18T21:46:43;13.32;;;9.28;;
44452;SDS011;30155;52.164;21.236;2022-10-18T21:51:38;11.35;;;10.30;;
44452;SDS011;30155;52.164;21.236;2022-10-18T21:56:39;12.23;;;10.70;;
44452;SDS011;30155;52.164;21.236;2022-10-18T22:01:36;14.25;;;12.07;;
44452;SDS011;30155;52.164;21.236;2022-10-18T22:06:29;14.80;;;13.40;;
44452;SDS011;30155;52.164;21.236;2022-10-18T22:11:30;16.60;;;14.33;;
44452;SDS011;30155;52.164;21.236;2022-10-18T22:16:25;16.23;;;14.47;;
44452;SDS011;30155;52.164;21.236;2022-10-18T22:21:18;15.35;;;13.75;;
44452;SDS011;30155;52.164;21.236;2022-10-18T22:26:11;17.98;;;14.73;;
44452;SDS011;30155;52.164;21.236;2022-10-18T22:31:19;16.40;;;14.65;;
44452;SDS011;30155;52.164;21.236;2022-10-18T22:36:14;18.25;;;15.05;;
44452;SDS011;30155;52.164;21.236;2022-10-18T22:41:06;18.45;;;16.52;;
44452;SDS011;30155;52.164;21.236;2022-10-18T22:46:01;17.12;;;15.40;;
44452;SDS011;30155;52.164;21.236;2022-10-18T22:50:55;14.78;;;13.15;;
44452;SDS011;30155;52.164;21.236;2022-10-18T22:55:49;16.87;;;15.15;;
44452;SDS011;30155;52.164;21.236;2022-10-18T23:00:41;16.60;;;14.53;;
44452;SDS011;30155;52.164;21.236;2022-10-18T23:05:36;15.72;;;13.95;;
44452;SDS011;30155;52.164;21.236;2022-10-18T23:10:29;20.02;;;14.58;;
44452;SDS011;30155;52.164;21.236;2022-10-18T23:15:20;15.72;;;14.03;;
44452;SDS011;30155;52.164;21.236;2022-10-18T23:20:11;16.25;;;14.68;;
44452;SDS011;30155;52.164;21.236;2022-10-18T23:25:03;16.62;;;14.50;;
44452;SDS011;30155;52.164;21.236;2022-10-18T23:29:55;19.07;;;14.28;;
44452;SDS011;30155;52.164;21.236;2022-10-18T23:34:46;14.47;;;12.90;;
44452;SDS011;30155;52.164;21.236;2022-10-18T23:39:37;17.32;;;15.13;;
44452;SDS011;30155;52.164;21.236;2022-10-18T23:44:29;14.55;;;13.08;;
44452;SDS011;30155;52.164;21.236;2022-10-18T23:49:20;16.52;;;14.85;;
44452;SDS011;30155;52.164;21.236;2022-10-18T23:54:11;14.10;;;12.68;;
44452;SDS011;30155;52.164;21.236;2022-10-18T23:59:06;31.05;;;19.05;;
